sensor_id;sensor_type;location;lat;lon;timestamp;P1;durP1;ratioP1;P2;durP2;ratioP2
63906;SDS011;50075;49.484;11.238;2022-07-01T00:01:43;33.70;;;5.80;;
63906;SDS011;50075;49.484;11.238;2022-07-01T00:04:09;44.67;;;6.22;;
63906;SDS011;50075;49.484;11.238;2022-07-01T00:06:35;28.33;;;5.53;;
63906;SDS011;50075;49.484;11.238;2022-07-01T00:09:00;34.13;;;6.07;;
63906;SDS011;50075;49.484;11.238;2022-07-01T00:11:26;30.98;;;5.68;;
63906;SDS011;50075;49.484;11.238;2022-07-01T00:13:51;35.70;;;6.05;;
63906;SDS011;50075;49.484;11.238;2022-07-01T00:16:17;38.05;;;6.25;;
63906;SDS011;50075;49.484;11.238;2022-07-01T00:18:42;35.83;;;6.78;;
63906;SDS011;50075;49.484;11.238;2022-07-01T00:21:08;29.85;;;6.13;;
63906;SDS011;50075;49.484;11.238;2022-07-01T00:23:33;33.97;;;5.78;;
63906;SDS011;50075;49.484;11.238;2022-07-01T00:25:59;34.47;;;6.43;;
63906;SDS011;50075;49.484;11.238;2022-07-01T00:28:24;35.95;;;6.25;;
63906;SDS011;50075;49.484;11.238;2022-07-01T00:30:50;32.83;;;6.45;;
63906;SDS011;50075;49.484;11.238;2022-07-01T00:33:16;31.02;;;6.25;;
63906;SDS011;50075;49.484;11.238;2022-07-01T00:35:42;33.63;;;6.32;;
63906;SDS011;50075;49.484;11.238;2022-07-01T00:38:07;29.50;;;6.05;;
63906;SDS011;50075;49.484;11.238;2022-07-01T00:40:33;36.58;;;6.93;;
63906;SDS011;50075;49.484;11.238;2022-07-01T00:42:58;30.50;;;6.22;;
63906;SDS011;50075;49.484;11.238;2022-07-01T00:45:24;32.53;;;6.15;;
63906;SDS011;50075;49.484;11.238;2022-07-01T00:47:49;32.55;;;6.53;;
63906;SDS011;50075;49.484;11.238;2022-07-01T00:50:15;41.92;;;7.00;;
63906;SDS011;50075;49.484;11.238;2022-07-01T00:52:42;28.05;;;6.20;;
63906;SDS011;50075;49.484;11.238;2022-07-01T00:55:10;36.17;;;6.53;;
63906;SDS011;50075;49.484;11.238;2022-07-01T00:57:36;33.63;;;6.90;;
63906;SDS011;50075;49.484;11.238;2022-07-01T01:00:04;40.13;;;7.38;;
63906;SDS011;50075;49.484;11.238;2022-07-01T01:02:37;40.63;;;6.68;;
63906;SDS011;50075;49.484;11.238;2022-07-01T01:05:04;32.17;;;6.25;;
63906;SDS011;50075;49.484;11.238;2022-07-01T01:07:31;35.85;;;6.50;;
63906;SDS011;50075;49.484;11.238;2022-07-01T01:09:57;36.72;;;6.55;;
63906;SDS011;50075;49.484;11.238;2022-07-01T01:12:27;29.90;;;5.75;;
63906;SDS011;50075;49.484;11.238;2022-07-01T01:14:54;35.53;;;6.30;;
63906;SDS011;50075;49.484;11.238;2022-07-01T01:17:21;33.13;;;6.20;;
63906;SDS011;50075;49.484;11.238;2022-07-01T01:19:47;26.52;;;5.60;;
63906;SDS011;50075;49.484;11.238;2022-07-01T01:22:14;29.77;;;5.88;;
63906;SDS011;50075;49.484;11.238;2022-07-01T01:24:41;33.10;;;6.05;;
63906;SDS011;50075;49.484;11.238;2022-07-01T01:27:07;27.63;;;5.82;;
63906;SDS011;50075;49.484;11.238;2022-07-01T01:29:34;30.73;;;6.22;;
63906;SDS011;50075;49.484;11.238;2022-07-01T01:32:01;35.58;;;6.25;;
63906;SDS011;50075;49.484;11.238;2022-07-01T01:34:29;32.25;;;5.93;;
63906;SDS011;50075;49.484;11.238;2022-07-01T01:36:54;31.60;;;5.90;;
63906;SDS011;50075;49.484;11.238;2022-07-01T01:39:20;31.65;;;5.88;;
63906;SDS011;50075;49.484;11.238;2022-07-01T01:41:45;35.50;;;6.53;;
63906;SDS011;50075;49.484;11.238;2022-07-01T01:44:11;35.33;;;5.93;;
63906;SDS011;50075;49.484;11.238;2022-07-01T01:46:37;34.83;;;6.00;;
63906;SDS011;50075;49.484;11.238;2022-07-01T01:49:03;28.27;;;5.55;;
63906;SDS011;50075;49.484;11.238;2022-07-01T01:51:30;29.55;;;5.40;;
63906;SDS011;50075;49.484;11.238;2022-07-01T01:53:55;36.90;;;5.85;;
63906;SDS011;50075;49.484;11.238;2022-07-01T01:56:21;25.40;;;5.25;;
63906;SDS011;50075;49.484;11.238;2022-07-01T01:58:47;26.13;;;4.90;;
63906;SDS011;50075;49.484;11.238;2022-07-01T02:01:15;32.90;;;5.47;;
63906;SDS011;50075;49.484;11.238;2022-07-01T02:03:41;31.65;;;5.43;;
63906;SDS011;50075;49.484;11.238;2022-07-01T02:06:08;31.58;;;5.30;;
63906;SDS011;50075;49.484;11.238;2022-07-01T02:08:35;37.63;;;5.97;;
63906;SDS011;50075;49.484;11.238;2022-07-01T02:11:01;30.42;;;5.43;;
63906;SDS011;50075;49.484;11.238;2022-07-01T02:13:26;34.03;;;5.53;;
63906;SDS011;50075;49.484;11.238;2022-07-01T02:15:51;28.88;;;4.85;;
63906;SDS011;50075;49.484;11.238;2022-07-01T02:18:17;29.98;;;5.20;;
63906;SDS011;50075;49.484;11.238;2022-07-01T02:20:42;30.65;;;5.35;;
63906;SDS011;50075;49.484;11.238;2022-07-01T02:23:08;32.95;;;5.25;;
63906;SDS011;50075;49.484;11.238;2022-07-01T02:25:34;30.42;;;5.00;;
63906;SDS011;50075;49.484;11.238;2022-07-01T02:28:00;30.15;;;5.07;;
63906;SDS011;50075;49.484;11.238;2022-07-01T02:30:27;30.60;;;5.25;;
63906;SDS011;50075;49.484;11.238;2022-07-01T02:32:52;29.48;;;5.15;;
63906;SDS011;50075;49.484;11.238;2022-07-01T02:35:18;32.40;;;4.88;;
63906;SDS011;50075;49.484;11.238;2022-07-01T02:37:43;29.85;;;4.95;;
63906;SDS011;50075;49.484;11.238;2022-07-01T02:40:09;42.78;;;6.25;;
63906;SDS011;50075;49.484;11.238;2022-07-01T02:42:36;41.15;;;5.72;;
63906;SDS011;50075;49.484;11.238;2022-07-01T02:45:02;29.35;;;5.05;;
63906;SDS011;50075;49.484;11.238;2022-07-01T02:47:32;32.40;;;5.20;;
63906;SDS011;50075;49.484;11.238;2022-07-01T02:50:04;39.10;;;5.78;;
63906;SDS011;50075;49.484;11.238;2022-07-01T02:52:31;30.70;;;4.70;;
63906;SDS011;50075;49.484;11.238;2022-07-01T02:54:59;31.60;;;4.93;;
63906;SDS011;50075;49.484;11.238;2022-07-01T02:57:25;34.50;;;5.15;;
63906;SDS011;50075;49.484;11.238;2022-07-01T02:59:50;32.05;;;4.95;;
63906;SDS011;50075;49.484;11.238;2022-07-01T03:02:16;27.90;;;4.88;;
63906;SDS011;50075;49.484;11.238;2022-07-01T03:04:43;38.58;;;5.88;;
63906;SDS011;50075;49.484;11.238;2022-07-01T03:07:08;40.42;;;5.43;;
63906;SDS011;50075;49.484;11.238;2022-07-01T03:09:34;34.22;;;5.18;;
63906;SDS011;50075;49.484;11.238;2022-07-01T03:12:00;28.23;;;4.63;;
63906;SDS011;50075;49.484;11.238;2022-07-01T03:14:45;36.78;;;5.45;;
63906;SDS011;50075;49.484;11.238;2022-07-01T03:17:11;32.95;;;4.95;;
63906;SDS011;50075;49.484;11.238;2022-07-01T03:19:36;28.35;;;4.78;;
63906;SDS011;50075;49.484;11.238;2022-07-01T03:22:01;33.72;;;5.05;;
63906;SDS011;50075;49.484;11.238;2022-07-01T03:24:27;26.33;;;4.65;;
63906;SDS011;50075;49.484;11.238;2022-07-01T03:26:52;33.13;;;5.20;;
63906;SDS011;50075;49.484;11.238;2022-07-01T03:29:18;30.52;;;5.10;;
63906;SDS011;50075;49.484;11.238;2022-07-01T03:31:43;35.25;;;5.65;;
63906;SDS011;50075;49.484;11.238;2022-07-01T03:34:08;38.55;;;5.80;;
63906;SDS011;50075;49.484;11.238;2022-07-01T03:36:34;33.72;;;5.03;;
63906;SDS011;50075;49.484;11.238;2022-07-01T03:39:01;36.30;;;5.60;;
63906;SDS011;50075;49.484;11.238;2022-07-01T03:41:28;30.80;;;4.93;;
63906;SDS011;50075;49.484;11.238;2022-07-01T03:43:54;36.92;;;5.55;;
63906;SDS011;50075;49.484;11.238;2022-07-01T03:46:19;32.58;;;4.97;;
63906;SDS011;50075;49.484;11.238;2022-07-01T03:48:44;34.42;;;5.07;;
63906;SDS011;50075;49.484;11.238;2022-07-01T03:51:10;32.95;;;5.05;;
63906;SDS011;50075;49.484;11.238;2022-07-01T03:53:35;27.15;;;4.75;;
63906;SDS011;50075;49.484;11.238;2022-07-01T03:56:19;39.05;;;5.70;;
63906;SDS011;50075;49.484;11.238;2022-07-01T03:58:44;36.90;;;5.45;;
63906;SDS011;50075;49.484;11.238;2022-07-01T04:01:09;33.13;;;5.20;;
63906;SDS011;50075;49.484;11.238;2022-07-01T04:03:35;31.27;;;4.72;;
63906;SDS011;50075;49.484;11.238;2022-07-01T04:06:00;33.33;;;5.00;;
63906;SDS011;50075;49.484;11.238;2022-07-01T04:08:25;38.05;;;5.35;;
63906;SDS011;50075;49.484;11.238;2022-07-01T04:10:51;26.95;;;4.47;;
63906;SDS011;50075;49.484;11.238;2022-07-01T04:13:18;28.63;;;4.80;;
63906;SDS011;50075;49.484;11.238;2022-07-01T04:15:44;32.05;;;5.03;;
63906;SDS011;50075;49.484;11.238;2022-07-01T04:18:09;30.52;;;5.13;;
63906;SDS011;50075;49.484;11.238;2022-07-01T04:20:35;33.33;;;5.13;;
63906;SDS011;50075;49.484;11.238;2022-07-01T04:23:01;38.70;;;5.60;;
63906;SDS011;50075;49.484;11.238;2022-07-01T04:25:26;39.40;;;6.85;;
63906;SDS011;50075;49.484;11.238;2022-07-01T04:27:54;31.73;;;5.97;;
63906;SDS011;50075;49.484;11.238;2022-07-01T04:30:20;34.97;;;6.45;;
63906;SDS011;50075;49.484;11.238;2022-07-01T04:32:46;30.65;;;5.85;;
63906;SDS011;50075;49.484;11.238;2022-07-01T04:35:11;31.88;;;6.00;;
63906;SDS011;50075;49.484;11.238;2022-07-01T04:37:39;43.17;;;6.32;;
63906;SDS011;50075;49.484;11.238;2022-07-01T04:40:05;51.88;;;7.75;;
63906;SDS011;50075;49.484;11.238;2022-07-01T04:42:31;31.67;;;6.50;;
63906;SDS011;50075;49.484;11.238;2022-07-01T04:44:57;40.30;;;6.72;;
63906;SDS011;50075;49.484;11.238;2022-07-01T04:47:22;40.03;;;6.90;;
63906;SDS011;50075;49.484;11.238;2022-07-01T04:49:48;42.33;;;6.38;;
63906;SDS011;50075;49.484;11.238;2022-07-01T04:52:14;42.67;;;7.22;;
63906;SDS011;50075;49.484;11.238;2022-07-01T04:54:40;36.40;;;5.97;;
63906;SDS011;50075;49.484;11.238;2022-07-01T04:57:06;33.63;;;6.40;;
63906;SDS011;50075;49.484;11.238;2022-07-01T04:59:31;35.45;;;6.78;;
63906;SDS011;50075;49.484;11.238;2022-07-01T05:01:57;35.90;;;6.82;;
63906;SDS011;50075;49.484;11.238;2022-07-01T05:04:23;39.30;;;6.75;;
63906;SDS011;50075;49.484;11.238;2022-07-01T05:06:51;41.13;;;7.03;;
63906;SDS011;50075;49.484;11.238;2022-07-01T05:09:16;42.15;;;6.95;;
63906;SDS011;50075;49.484;11.238;2022-07-01T05:11:42;42.38;;;7.40;;
63906;SDS011;50075;49.484;11.238;2022-07-01T05:14:07;35.67;;;6.40;;
63906;SDS011;50075;49.484;11.238;2022-07-01T05:16:34;33.22;;;5.95;;
63906;SDS011;50075;49.484;11.238;2022-07-01T05:19:00;34.90;;;6.32;;
63906;SDS011;50075;49.484;11.238;2022-07-01T05:22:01;34.40;;;6.33;;
63906;SDS011;50075;49.484;11.238;2022-07-01T05:24:28;36.47;;;6.50;;
63906;SDS011;50075;49.484;11.238;2022-07-01T05:26:55;34.05;;;6.53;;
63906;SDS011;50075;49.484;11.238;2022-07-01T05:29:21;31.67;;;5.63;;
63906;SDS011;50075;49.484;11.238;2022-07-01T05:31:47;26.98;;;5.30;;
63906;SDS011;50075;49.484;11.238;2022-07-01T05:34:12;30.70;;;6.30;;
63906;SDS011;50075;49.484;11.238;2022-07-01T05:36:38;33.83;;;6.28;;
63906;SDS011;50075;49.484;11.238;2022-07-01T05:39:03;45.58;;;7.78;;
63906;SDS011;50075;49.484;11.238;2022-07-01T05:41:29;27.25;;;5.85;;
63906;SDS011;50075;49.484;11.238;2022-07-01T05:43:55;27.98;;;5.72;;
63906;SDS011;50075;49.484;11.238;2022-07-01T05:46:20;29.95;;;6.45;;
63906;SDS011;50075;49.484;11.238;2022-07-01T05:48:46;30.92;;;5.72;;
63906;SDS011;50075;49.484;11.238;2022-07-01T05:51:11;27.65;;;5.65;;
63906;SDS011;50075;49.484;11.238;2022-07-01T05:53:37;32.17;;;5.75;;
63906;SDS011;50075;49.484;11.238;2022-07-01T05:56:02;24.17;;;5.10;;
63906;SDS011;50075;49.484;11.238;2022-07-01T05:58:28;28.77;;;5.80;;
63906;SDS011;50075;49.484;11.238;2022-07-01T06:00:53;27.80;;;5.45;;
63906;SDS011;50075;49.484;11.238;2022-07-01T06:03:18;26.83;;;4.90;;
63906;SDS011;50075;49.484;11.238;2022-07-01T06:05:44;30.25;;;5.45;;
63906;SDS011;50075;49.484;11.238;2022-07-01T06:08:09;27.83;;;5.60;;
63906;SDS011;50075;49.484;11.238;2022-07-01T06:10:35;28.50;;;5.28;;
63906;SDS011;50075;49.484;11.238;2022-07-01T06:13:01;27.73;;;4.95;;
63906;SDS011;50075;49.484;11.238;2022-07-01T06:15:27;31.00;;;5.60;;
63906;SDS011;50075;49.484;11.238;2022-07-01T06:17:52;25.73;;;4.43;;
63906;SDS011;50075;49.484;11.238;2022-07-01T06:20:19;28.25;;;4.85;;
63906;SDS011;50075;49.484;11.238;2022-07-01T06:22:44;31.13;;;5.18;;
63906;SDS011;50075;49.484;11.238;2022-07-01T06:25:09;24.25;;;4.13;;
63906;SDS011;50075;49.484;11.238;2022-07-01T06:27:42;22.40;;;4.30;;
63906;SDS011;50075;49.484;11.238;2022-07-01T06:30:09;35.28;;;5.22;;
63906;SDS011;50075;49.484;11.238;2022-07-01T06:32:35;22.83;;;4.05;;
63906;SDS011;50075;49.484;11.238;2022-07-01T06:35:01;25.05;;;4.32;;
63906;SDS011;50075;49.484;11.238;2022-07-01T06:37:27;30.25;;;5.72;;
63906;SDS011;50075;49.484;11.238;2022-07-01T06:39:52;28.17;;;4.55;;
63906;SDS011;50075;49.484;11.238;2022-07-01T06:42:17;25.20;;;4.18;;
63906;SDS011;50075;49.484;11.238;2022-07-01T06:44:43;25.77;;;4.25;;
63906;SDS011;50075;49.484;11.238;2022-07-01T06:47:08;24.27;;;4.05;;
63906;SDS011;50075;49.484;11.238;2022-07-01T06:49:34;24.27;;;4.40;;
63906;SDS011;50075;49.484;11.238;2022-07-01T06:51:59;24.50;;;3.90;;
63906;SDS011;50075;49.484;11.238;2022-07-01T06:54:24;21.35;;;3.70;;
63906;SDS011;50075;49.484;11.238;2022-07-01T06:56:50;21.40;;;3.60;;
63906;SDS011;50075;49.484;11.238;2022-07-01T06:59:15;23.75;;;3.70;;
63906;SDS011;50075;49.484;11.238;2022-07-01T07:01:41;26.65;;;3.90;;
63906;SDS011;50075;49.484;11.238;2022-07-01T07:04:07;30.17;;;4.80;;
63906;SDS011;50075;49.484;11.238;2022-07-01T07:06:32;23.30;;;4.20;;
63906;SDS011;50075;49.484;11.238;2022-07-01T07:08:58;26.42;;;3.92;;
63906;SDS011;50075;49.484;11.238;2022-07-01T07:11:23;26.90;;;4.10;;
63906;SDS011;50075;49.484;11.238;2022-07-01T07:13:48;22.50;;;3.53;;
63906;SDS011;50075;49.484;11.238;2022-07-01T07:16:14;22.10;;;3.72;;
63906;SDS011;50075;49.484;11.238;2022-07-01T07:18:39;29.88;;;4.47;;
63906;SDS011;50075;49.484;11.238;2022-07-01T07:21:05;22.77;;;3.70;;
63906;SDS011;50075;49.484;11.238;2022-07-01T07:23:30;27.30;;;3.78;;
63906;SDS011;50075;49.484;11.238;2022-07-01T07:25:56;22.98;;;3.90;;
63906;SDS011;50075;49.484;11.238;2022-07-01T07:28:21;37.90;;;5.57;;
63906;SDS011;50075;49.484;11.238;2022-07-01T07:30:47;21.17;;;3.38;;
63906;SDS011;50075;49.484;11.238;2022-07-01T07:33:12;22.63;;;3.83;;
63906;SDS011;50075;49.484;11.238;2022-07-01T07:35:38;19.17;;;3.20;;
63906;SDS011;50075;49.484;11.238;2022-07-01T07:38:03;26.08;;;4.13;;
63906;SDS011;50075;49.484;11.238;2022-07-01T07:40:28;25.40;;;3.90;;
63906;SDS011;50075;49.484;11.238;2022-07-01T07:42:54;22.80;;;3.40;;
63906;SDS011;50075;49.484;11.238;2022-07-01T07:45:19;21.90;;;3.58;;
63906;SDS011;50075;49.484;11.238;2022-07-01T07:47:45;24.17;;;3.85;;
63906;SDS011;50075;49.484;11.238;2022-07-01T07:50:13;23.65;;;3.58;;
63906;SDS011;50075;49.484;11.238;2022-07-01T07:52:39;23.88;;;3.75;;
63906;SDS011;50075;49.484;11.238;2022-07-01T07:55:06;24.05;;;3.72;;
63906;SDS011;50075;49.484;11.238;2022-07-01T07:57:35;23.40;;;3.45;;
63906;SDS011;50075;49.484;11.238;2022-07-01T08:00:01;37.47;;;5.07;;
63906;SDS011;50075;49.484;11.238;2022-07-01T08:02:26;24.60;;;3.78;;
63906;SDS011;50075;49.484;11.238;2022-07-01T08:04:51;26.58;;;3.83;;
63906;SDS011;50075;49.484;11.238;2022-07-01T08:07:17;24.38;;;3.50;;
63906;SDS011;50075;49.484;11.238;2022-07-01T08:09:42;27.23;;;3.83;;
63906;SDS011;50075;49.484;11.238;2022-07-01T08:12:11;29.70;;;3.90;;
63906;SDS011;50075;49.484;11.238;2022-07-01T08:14:37;22.10;;;3.35;;
63906;SDS011;50075;49.484;11.238;2022-07-01T08:17:03;24.20;;;3.85;;
63906;SDS011;50075;49.484;11.238;2022-07-01T08:19:28;26.20;;;4.20;;
63906;SDS011;50075;49.484;11.238;2022-07-01T08:21:53;26.95;;;4.25;;
63906;SDS011;50075;49.484;11.238;2022-07-01T08:24:19;27.23;;;4.63;;
63906;SDS011;50075;49.484;11.238;2022-07-01T08:26:44;21.17;;;4.30;;
63906;SDS011;50075;49.484;11.238;2022-07-01T08:29:09;29.95;;;5.00;;
63906;SDS011;50075;49.484;11.238;2022-07-01T08:31:35;28.63;;;4.65;;
63906;SDS011;50075;49.484;11.238;2022-07-01T08:34:00;30.23;;;5.40;;
63906;SDS011;50075;49.484;11.238;2022-07-01T08:36:27;24.92;;;4.75;;
63906;SDS011;50075;49.484;11.238;2022-07-01T08:38:52;27.80;;;4.75;;
63906;SDS011;50075;49.484;11.238;2022-07-01T08:41:18;27.05;;;4.82;;
63906;SDS011;50075;49.484;11.238;2022-07-01T08:43:44;24.25;;;4.80;;
63906;SDS011;50075;49.484;11.238;2022-07-01T08:46:10;23.80;;;4.25;;
63906;SDS011;50075;49.484;11.238;2022-07-01T08:48:36;31.30;;;5.45;;
63906;SDS011;50075;49.484;11.238;2022-07-01T08:51:02;21.13;;;3.85;;
63906;SDS011;50075;49.484;11.238;2022-07-01T08:53:29;25.65;;;4.60;;
63906;SDS011;50075;49.484;11.238;2022-07-01T08:55:56;21.85;;;4.00;;
63906;SDS011;50075;49.484;11.238;2022-07-01T08:58:41;25.23;;;4.57;;
63906;SDS011;50075;49.484;11.238;2022-07-01T09:03:41;22.42;;;4.47;;
63906;SDS011;50075;49.484;11.238;2022-07-01T09:08:41;28.05;;;4.70;;
63906;SDS011;50075;49.484;11.238;2022-07-01T09:11:10;23.23;;;4.25;;
63906;SDS011;50075;49.484;11.238;2022-07-01T09:13:40;32.75;;;5.22;;
63906;SDS011;50075;49.484;11.238;2022-07-01T09:16:16;23.08;;;4.28;;
63906;SDS011;50075;49.484;11.238;2022-07-01T09:19:01;26.02;;;4.55;;
63906;SDS011;50075;49.484;11.238;2022-07-01T09:21:28;23.98;;;4.30;;
63906;SDS011;50075;49.484;11.238;2022-07-01T09:23:55;27.30;;;4.60;;
63906;SDS011;50075;49.484;11.238;2022-07-01T09:26:20;21.98;;;3.92;;
63906;SDS011;50075;49.484;11.238;2022-07-01T09:28:52;28.33;;;4.28;;
63906;SDS011;50075;49.484;11.238;2022-07-01T09:31:19;24.38;;;4.47;;
63906;SDS011;50075;49.484;11.238;2022-07-01T09:33:45;25.58;;;4.30;;
63906;SDS011;50075;49.484;11.238;2022-07-01T09:36:14;26.25;;;4.72;;
63906;SDS011;50075;49.484;11.238;2022-07-01T09:38:45;31.90;;;5.47;;
63906;SDS011;50075;49.484;11.238;2022-07-01T09:41:12;20.67;;;3.78;;
63906;SDS011;50075;49.484;11.238;2022-07-01T09:43:38;23.40;;;4.10;;
63906;SDS011;50075;49.484;11.238;2022-07-01T09:46:08;23.02;;;4.25;;
63906;SDS011;50075;49.484;11.238;2022-07-01T09:51:04;26.42;;;4.45;;
63906;SDS011;50075;49.484;11.238;2022-07-01T09:53:31;23.42;;;4.10;;
63906;SDS011;50075;49.484;11.238;2022-07-01T09:55:57;23.75;;;4.05;;
63906;SDS011;50075;49.484;11.238;2022-07-01T09:58:22;25.92;;;4.38;;
63906;SDS011;50075;49.484;11.238;2022-07-01T10:00:48;20.10;;;3.85;;
63906;SDS011;50075;49.484;11.238;2022-07-01T10:03:14;29.45;;;4.50;;
63906;SDS011;50075;49.484;11.238;2022-07-01T10:05:49;27.52;;;4.50;;
63906;SDS011;50075;49.484;11.238;2022-07-01T10:13:40;29.80;;;4.30;;
63906;SDS011;50075;49.484;11.238;2022-07-01T10:16:07;24.73;;;3.92;;
63906;SDS011;50075;49.484;11.238;2022-07-01T10:18:34;24.20;;;3.95;;
63906;SDS011;50075;49.484;11.238;2022-07-01T10:21:00;19.40;;;3.80;;
63906;SDS011;50075;49.484;11.238;2022-07-01T10:23:42;20.42;;;3.75;;
63906;SDS011;50075;49.484;11.238;2022-07-01T10:26:08;20.10;;;3.42;;
63906;SDS011;50075;49.484;11.238;2022-07-01T10:31:08;23.55;;;4.05;;
63906;SDS011;50075;49.484;11.238;2022-07-01T10:41:25;22.10;;;3.78;;
63906;SDS011;50075;49.484;11.238;2022-07-01T10:43:53;23.60;;;4.15;;
63906;SDS011;50075;49.484;11.238;2022-07-01T10:46:38;23.83;;;3.97;;
63906;SDS011;50075;49.484;11.238;2022-07-01T10:49:10;20.30;;;3.42;;
63906;SDS011;50075;49.484;11.238;2022-07-01T11:02:14;25.92;;;4.30;;
63906;SDS011;50075;49.484;11.238;2022-07-01T11:04:41;22.88;;;4.05;;
63906;SDS011;50075;49.484;11.238;2022-07-01T11:07:07;21.90;;;3.75;;
63906;SDS011;50075;49.484;11.238;2022-07-01T11:09:33;23.25;;;3.90;;
63906;SDS011;50075;49.484;11.238;2022-07-01T11:11:59;26.65;;;4.57;;
63906;SDS011;50075;49.484;11.238;2022-07-01T11:14:25;28.10;;;4.25;;
63906;SDS011;50075;49.484;11.238;2022-07-01T11:16:51;22.63;;;3.80;;
63906;SDS011;50075;49.484;11.238;2022-07-01T11:19:19;21.90;;;3.70;;
63906;SDS011;50075;49.484;11.238;2022-07-01T11:21:48;23.63;;;3.83;;
63906;SDS011;50075;49.484;11.238;2022-07-01T11:24:16;22.83;;;4.05;;
63906;SDS011;50075;49.484;11.238;2022-07-01T11:26:42;22.10;;;4.18;;
63906;SDS011;50075;49.484;11.238;2022-07-01T11:29:09;26.45;;;4.60;;
63906;SDS011;50075;49.484;11.238;2022-07-01T11:31:35;22.33;;;3.95;;
63906;SDS011;50075;49.484;11.238;2022-07-01T11:34:01;27.70;;;4.57;;
63906;SDS011;50075;49.484;11.238;2022-07-01T11:36:27;25.67;;;4.38;;
63906;SDS011;50075;49.484;11.238;2022-07-01T11:39:11;25.23;;;4.25;;
63906;SDS011;50075;49.484;11.238;2022-07-01T11:41:55;31.00;;;4.80;;
63906;SDS011;50075;49.484;11.238;2022-07-01T11:47:02;28.88;;;4.72;;
63906;SDS011;50075;49.484;11.238;2022-07-01T11:49:29;26.27;;;4.63;;
63906;SDS011;50075;49.484;11.238;2022-07-01T11:51:59;24.30;;;4.63;;
63906;SDS011;50075;49.484;11.238;2022-07-01T11:54:26;27.55;;;4.40;;
63906;SDS011;50075;49.484;11.238;2022-07-01T11:56:51;24.95;;;4.38;;
63906;SDS011;50075;49.484;11.238;2022-07-01T11:59:17;25.55;;;4.43;;
63906;SDS011;50075;49.484;11.238;2022-07-01T12:01:50;28.77;;;4.97;;
63906;SDS011;50075;49.484;11.238;2022-07-01T12:04:19;25.77;;;4.68;;
63906;SDS011;50075;49.484;11.238;2022-07-01T12:06:45;25.40;;;4.80;;
63906;SDS011;50075;49.484;11.238;2022-07-01T12:09:16;26.30;;;4.50;;
63906;SDS011;50075;49.484;11.238;2022-07-01T12:11:43;25.63;;;4.23;;
63906;SDS011;50075;49.484;11.238;2022-07-01T12:14:11;20.63;;;4.40;;
63906;SDS011;50075;49.484;11.238;2022-07-01T12:16:39;30.38;;;5.13;;
63906;SDS011;50075;49.484;11.238;2022-07-01T12:19:05;25.58;;;4.43;;
63906;SDS011;50075;49.484;11.238;2022-07-01T12:21:31;26.17;;;4.85;;
63906;SDS011;50075;49.484;11.238;2022-07-01T12:24:15;24.40;;;4.60;;
63906;SDS011;50075;49.484;11.238;2022-07-01T12:26:48;34.70;;;5.15;;
63906;SDS011;50075;49.484;11.238;2022-07-01T12:29:18;22.77;;;4.55;;
63906;SDS011;50075;49.484;11.238;2022-07-01T12:34:20;22.17;;;4.68;;
63906;SDS011;50075;49.484;11.238;2022-07-01T12:36:47;29.63;;;5.28;;
63906;SDS011;50075;49.484;11.238;2022-07-01T12:39:15;22.73;;;4.28;;
63906;SDS011;50075;49.484;11.238;2022-07-01T12:41:48;24.23;;;4.45;;
63906;SDS011;50075;49.484;11.238;2022-07-01T12:44:25;26.25;;;4.85;;
63906;SDS011;50075;49.484;11.238;2022-07-01T12:46:52;25.17;;;4.60;;
63906;SDS011;50075;49.484;11.238;2022-07-01T12:49:18;22.15;;;4.15;;
63906;SDS011;50075;49.484;11.238;2022-07-01T12:51:46;26.98;;;4.80;;
63906;SDS011;50075;49.484;11.238;2022-07-01T12:54:27;20.77;;;4.78;;
63906;SDS011;50075;49.484;11.238;2022-07-01T12:56:54;27.17;;;5.25;;
63906;SDS011;50075;49.484;11.238;2022-07-01T12:59:20;26.02;;;4.93;;
63906;SDS011;50075;49.484;11.238;2022-07-01T13:01:45;24.25;;;4.63;;
63906;SDS011;50075;49.484;11.238;2022-07-01T13:04:10;36.33;;;12.85;;
63906;SDS011;50075;49.484;11.238;2022-07-01T13:06:36;32.55;;;8.45;;
63906;SDS011;50075;49.484;11.238;2022-07-01T13:09:01;23.88;;;5.18;;
63906;SDS011;50075;49.484;11.238;2022-07-01T13:11:26;24.15;;;5.97;;
63906;SDS011;50075;49.484;11.238;2022-07-01T13:13:52;25.55;;;5.40;;
63906;SDS011;50075;49.484;11.238;2022-07-01T13:16:17;31.05;;;6.35;;
63906;SDS011;50075;49.484;11.238;2022-07-01T13:18:43;33.00;;;7.00;;
63906;SDS011;50075;49.484;11.238;2022-07-01T13:21:08;25.75;;;6.18;;
63906;SDS011;50075;49.484;11.238;2022-07-01T13:23:33;25.08;;;5.32;;
63906;SDS011;50075;49.484;11.238;2022-07-01T13:25:59;31.17;;;5.10;;
63906;SDS011;50075;49.484;11.238;2022-07-01T13:28:24;42.83;;;5.97;;
63906;SDS011;50075;49.484;11.238;2022-07-01T13:30:49;28.70;;;4.13;;
63906;SDS011;50075;49.484;11.238;2022-07-01T13:33:15;23.80;;;4.05;;
63906;SDS011;50075;49.484;11.238;2022-07-01T13:35:41;31.70;;;5.20;;
63906;SDS011;50075;49.484;11.238;2022-07-01T13:38:06;24.40;;;4.25;;
63906;SDS011;50075;49.484;11.238;2022-07-01T13:40:31;28.48;;;4.78;;
63906;SDS011;50075;49.484;11.238;2022-07-01T13:42:57;24.55;;;3.83;;
63906;SDS011;50075;49.484;11.238;2022-07-01T13:45:22;24.45;;;4.40;;
63906;SDS011;50075;49.484;11.238;2022-07-01T13:47:48;26.08;;;4.25;;
63906;SDS011;50075;49.484;11.238;2022-07-01T13:50:13;28.45;;;4.35;;
63906;SDS011;50075;49.484;11.238;2022-07-01T13:52:39;27.77;;;5.13;;
63906;SDS011;50075;49.484;11.238;2022-07-01T13:55:05;24.20;;;4.38;;
63906;SDS011;50075;49.484;11.238;2022-07-01T13:57:31;26.60;;;4.70;;
63906;SDS011;50075;49.484;11.238;2022-07-01T13:59:56;33.35;;;4.85;;
63906;SDS011;50075;49.484;11.238;2022-07-01T14:02:22;33.75;;;5.22;;
63906;SDS011;50075;49.484;11.238;2022-07-01T14:04:48;31.88;;;5.43;;
63906;SDS011;50075;49.484;11.238;2022-07-01T14:07:14;25.77;;;4.55;;
63906;SDS011;50075;49.484;11.238;2022-07-01T14:09:39;36.90;;;5.30;;
63906;SDS011;50075;49.484;11.238;2022-07-01T14:12:05;26.60;;;4.38;;
63906;SDS011;50075;49.484;11.238;2022-07-01T14:14:32;27.70;;;4.82;;
63906;SDS011;50075;49.484;11.238;2022-07-01T14:16:57;27.80;;;4.47;;
63906;SDS011;50075;49.484;11.238;2022-07-01T14:19:22;21.88;;;4.15;;
63906;SDS011;50075;49.484;11.238;2022-07-01T14:21:48;27.95;;;4.65;;
63906;SDS011;50075;49.484;11.238;2022-07-01T14:24:13;35.90;;;5.28;;
63906;SDS011;50075;49.484;11.238;2022-07-01T14:26:39;35.70;;;5.03;;
63906;SDS011;50075;49.484;11.238;2022-07-01T14:29:04;45.70;;;6.53;;
63906;SDS011;50075;49.484;11.238;2022-07-01T14:31:29;34.63;;;5.13;;
63906;SDS011;50075;49.484;11.238;2022-07-01T14:33:55;40.35;;;5.80;;
63906;SDS011;50075;49.484;11.238;2022-07-01T14:36:20;36.58;;;5.55;;
63906;SDS011;50075;49.484;11.238;2022-07-01T14:38:45;34.55;;;5.43;;
63906;SDS011;50075;49.484;11.238;2022-07-01T14:41:11;43.13;;;6.07;;
63906;SDS011;50075;49.484;11.238;2022-07-01T14:43:36;36.85;;;5.47;;
63906;SDS011;50075;49.484;11.238;2022-07-01T14:46:03;29.13;;;4.72;;
63906;SDS011;50075;49.484;11.238;2022-07-01T14:48:33;31.45;;;4.78;;
63906;SDS011;50075;49.484;11.238;2022-07-01T14:51:00;36.85;;;5.70;;
63906;SDS011;50075;49.484;11.238;2022-07-01T14:53:26;37.90;;;5.35;;
63906;SDS011;50075;49.484;11.238;2022-07-01T14:55:51;34.70;;;4.93;;
63906;SDS011;50075;49.484;11.238;2022-07-01T14:58:16;37.47;;;5.25;;